sensor_id;sensor_type;location;lat;lon;timestamp;P1;durP1;ratioP1;P2;durP2;ratioP2
46745;SDS011;32493;50.514;9.678;2022-12-18T00:01:13;30.65;;;10.13;;
46745;SDS011;32493;50.514;9.678;2022-12-18T00:03:21;27.42;;;10.43;;
46745;SDS011;32493;50.514;9.678;2022-12-18T00:05:26;29.92;;;11.25;;
46745;SDS011;32493;50.514;9.678;2022-12-18T00:07:32;23.05;;;10.02;;
46745;SDS011;32493;50.514;9.678;2022-12-18T00:09:38;25.10;;;10.13;;
46745;SDS011;32493;50.514;9.678;2022-12-18T00:11:46;29.75;;;10.05;;
46745;SDS011;32493;50.514;9.678;2022-12-18T00:13:52;26.83;;;10.75;;
46745;SDS011;32493;50.514;9.678;2022-12-18T00:16:01;26.90;;;10.23;;
46745;SDS011;32493;50.514;9.678;2022-12-18T00:18:07;27.45;;;10.98;;
46745;SDS011;32493;50.514;9.678;2022-12-18T00:20:19;27.13;;;10.30;;
46745;SDS011;32493;50.514;9.678;2022-12-18T00:22:27;27.02;;;10.07;;
46745;SDS011;32493;50.514;9.678;2022-12-18T00:24:32;23.13;;;9.80;;
46745;SDS011;32493;50.514;9.678;2022-12-18T00:26:38;23.90;;;10.27;;
46745;SDS011;32493;50.514;9.678;2022-12-18T00:28:47;25.73;;;10.63;;
46745;SDS011;32493;50.514;9.678;2022-12-18T00:30:59;34.00;;;11.90;;
46745;SDS011;32493;50.514;9.678;2022-12-18T00:33:05;28.77;;;12.25;;
46745;SDS011;32493;50.514;9.678;2022-12-18T00:35:10;28.25;;;11.05;;
46745;SDS011;32493;50.514;9.678;2022-12-18T00:37:15;34.85;;;11.07;;
46745;SDS011;32493;50.514;9.678;2022-12-18T00:39:24;29.55;;;11.40;;
46745;SDS011;32493;50.514;9.678;2022-12-18T00:41:30;29.13;;;11.00;;
46745;SDS011;32493;50.514;9.678;2022-12-18T00:43:51;27.10;;;10.65;;
46745;SDS011;32493;50.514;9.678;2022-12-18T00:45:56;33.60;;;11.68;;
46745;SDS011;32493;50.514;9.678;2022-12-18T00:48:01;29.58;;;10.77;;
46745;SDS011;32493;50.514;9.678;2022-12-18T00:50:07;33.70;;;10.60;;
46745;SDS011;32493;50.514;9.678;2022-12-18T00:52:15;28.13;;;11.73;;
46745;SDS011;32493;50.514;9.678;2022-12-18T00:54:20;28.45;;;11.55;;
46745;SDS011;32493;50.514;9.678;2022-12-18T00:56:25;27.25;;;10.85;;
46745;SDS011;32493;50.514;9.678;2022-12-18T00:58:31;28.02;;;10.82;;
46745;SDS011;32493;50.514;9.678;2022-12-18T01:00:39;25.50;;;10.50;;
46745;SDS011;32493;50.514;9.678;2022-12-18T01:02:45;29.00;;;10.40;;
46745;SDS011;32493;50.514;9.678;2022-12-18T01:04:51;24.25;;;10.10;;
46745;SDS011;32493;50.514;9.678;2022-12-18T01:06:56;25.23;;;9.52;;
46745;SDS011;32493;50.514;9.678;2022-12-18T01:09:01;26.45;;;9.93;;
46745;SDS011;32493;50.514;9.678;2022-12-18T01:11:15;25.55;;;9.82;;
46745;SDS011;32493;50.514;9.678;2022-12-18T01:13:22;25.92;;;9.50;;
46745;SDS011;32493;50.514;9.678;2022-12-18T01:15:27;24.27;;;9.80;;
46745;SDS011;32493;50.514;9.678;2022-12-18T01:17:35;29.10;;;10.13;;
46745;SDS011;32493;50.514;9.678;2022-12-18T01:21:45;24.83;;;9.73;;
46745;SDS011;32493;50.514;9.678;2022-12-18T01:23:53;26.13;;;9.85;;
46745;SDS011;32493;50.514;9.678;2022-12-18T01:26:03;27.10;;;10.55;;
46745;SDS011;32493;50.514;9.678;2022-12-18T01:28:10;26.88;;;9.55;;
46745;SDS011;32493;50.514;9.678;2022-12-18T01:30:15;25.98;;;10.70;;
46745;SDS011;32493;50.514;9.678;2022-12-18T01:32:21;27.40;;;9.63;;
46745;SDS011;32493;50.514;9.678;2022-12-18T01:34:29;25.38;;;10.13;;
46745;SDS011;32493;50.514;9.678;2022-12-18T01:36:38;27.40;;;10.10;;
46745;SDS011;32493;50.514;9.678;2022-12-18T01:38:43;25.83;;;8.95;;
46745;SDS011;32493;50.514;9.678;2022-12-18T01:40:49;24.45;;;8.80;;
46745;SDS011;32493;50.514;9.678;2022-12-18T01:43:01;23.67;;;8.93;;
46745;SDS011;32493;50.514;9.678;2022-12-18T01:45:09;16.20;;;7.72;;
46745;SDS011;32493;50.514;9.678;2022-12-18T01:47:30;24.73;;;8.77;;
46745;SDS011;32493;50.514;9.678;2022-12-18T01:49:43;21.45;;;8.48;;
46745;SDS011;32493;50.514;9.678;2022-12-18T01:51:48;24.67;;;9.40;;
46745;SDS011;32493;50.514;9.678;2022-12-18T01:53:53;25.38;;;9.32;;
46745;SDS011;32493;50.514;9.678;2022-12-18T01:55:59;22.15;;;8.95;;
46745;SDS011;32493;50.514;9.678;2022-12-18T01:58:04;19.88;;;8.32;;
46745;SDS011;32493;50.514;9.678;2022-12-18T02:00:12;23.55;;;8.25;;
46745;SDS011;32493;50.514;9.678;2022-12-18T02:02:21;21.65;;;8.30;;
46745;SDS011;32493;50.514;9.678;2022-12-18T02:04:27;21.33;;;9.68;;
46745;SDS011;32493;50.514;9.678;2022-12-18T02:06:36;20.17;;;8.82;;
46745;SDS011;32493;50.514;9.678;2022-12-18T02:08:48;25.20;;;9.88;;
46745;SDS011;32493;50.514;9.678;2022-12-18T02:11:05;24.13;;;9.45;;
46745;SDS011;32493;50.514;9.678;2022-12-18T02:13:19;24.10;;;9.38;;
46745;SDS011;32493;50.514;9.678;2022-12-18T02:15:34;26.05;;;9.65;;
46745;SDS011;32493;50.514;9.678;2022-12-18T02:17:48;23.90;;;9.90;;
46745;SDS011;32493;50.514;9.678;2022-12-18T02:20:03;25.30;;;9.02;;
46745;SDS011;32493;50.514;9.678;2022-12-18T02:22:26;22.23;;;9.00;;
46745;SDS011;32493;50.514;9.678;2022-12-18T02:24:41;26.25;;;9.68;;
46745;SDS011;32493;50.514;9.678;2022-12-18T02:26:58;21.95;;;9.00;;
46745;SDS011;32493;50.514;9.678;2022-12-18T02:29:08;27.60;;;9.85;;
46745;SDS011;32493;50.514;9.678;2022-12-18T02:31:23;28.10;;;9.60;;
46745;SDS011;32493;50.514;9.678;2022-12-18T02:33:32;22.65;;;9.27;;
46745;SDS011;32493;50.514;9.678;2022-12-18T02:35:40;26.90;;;10.05;;
46745;SDS011;32493;50.514;9.678;2022-12-18T02:37:48;28.27;;;9.05;;
46745;SDS011;32493;50.514;9.678;2022-12-18T02:39:55;24.67;;;8.98;;
46745;SDS011;32493;50.514;9.678;2022-12-18T02:42:07;21.30;;;8.43;;
46745;SDS011;32493;50.514;9.678;2022-12-18T02:44:14;25.55;;;9.43;;
46745;SDS011;32493;50.514;9.678;2022-12-18T02:46:23;25.30;;;9.70;;
46745;SDS011;32493;50.514;9.678;2022-12-18T02:48:34;26.52;;;9.77;;
46745;SDS011;32493;50.514;9.678;2022-12-18T02:50:41;22.70;;;9.60;;
46745;SDS011;32493;50.514;9.678;2022-12-18T02:53:01;29.35;;;10.18;;
46745;SDS011;32493;50.514;9.678;2022-12-18T02:55:18;22.30;;;8.57;;
46745;SDS011;32493;50.514;9.678;2022-12-18T02:57:39;27.00;;;9.38;;
46745;SDS011;32493;50.514;9.678;2022-12-18T02:59:55;26.52;;;9.88;;
46745;SDS011;32493;50.514;9.678;2022-12-18T03:02:11;27.95;;;9.75;;
46745;SDS011;32493;50.514;9.678;2022-12-18T03:04:28;21.88;;;8.32;;
46745;SDS011;32493;50.514;9.678;2022-12-18T03:06:42;25.05;;;10.13;;
46745;SDS011;32493;50.514;9.678;2022-12-18T03:08:54;28.10;;;8.63;;
46745;SDS011;32493;50.514;9.678;2022-12-18T03:11:06;23.70;;;8.50;;
46745;SDS011;32493;50.514;9.678;2022-12-18T03:13:18;21.33;;;8.80;;
46745;SDS011;32493;50.514;9.678;2022-12-18T03:15:28;20.42;;;8.82;;
46745;SDS011;32493;50.514;9.678;2022-12-18T03:17:44;23.25;;;8.80;;
46745;SDS011;32493;50.514;9.678;2022-12-18T03:20:02;23.88;;;8.88;;
46745;SDS011;32493;50.514;9.678;2022-12-18T03:22:11;21.35;;;8.85;;
46745;SDS011;32493;50.514;9.678;2022-12-18T03:24:22;24.85;;;9.60;;
46745;SDS011;32493;50.514;9.678;2022-12-18T03:26:30;27.38;;;9.70;;
46745;SDS011;32493;50.514;9.678;2022-12-18T03:28:42;22.30;;;9.23;;
46745;SDS011;32493;50.514;9.678;2022-12-18T03:30:55;26.10;;;8.20;;
46745;SDS011;32493;50.514;9.678;2022-12-18T03:33:05;17.15;;;5.93;;
46745;SDS011;32493;50.514;9.678;2022-12-18T03:35:19;21.17;;;7.95;;
46745;SDS011;32493;50.514;9.678;2022-12-18T03:37:28;25.48;;;8.23;;
46745;SDS011;32493;50.514;9.678;2022-12-18T03:39:34;29.05;;;7.65;;
46745;SDS011;32493;50.514;9.678;2022-12-18T03:41:41;20.60;;;8.77;;
46745;SDS011;32493;50.514;9.678;2022-12-18T03:44:23;18.70;;;7.05;;
46745;SDS011;32493;50.514;9.678;2022-12-18T03:46:36;19.73;;;7.88;;
46745;SDS011;32493;50.514;9.678;2022-12-18T03:51:05;25.90;;;7.47;;
46745;SDS011;32493;50.514;9.678;2022-12-18T03:53:17;25.35;;;8.50;;
46745;SDS011;32493;50.514;9.678;2022-12-18T03:55:31;18.05;;;6.95;;
46745;SDS011;32493;50.514;9.678;2022-12-18T03:57:40;18.45;;;7.03;;
46745;SDS011;32493;50.514;9.678;2022-12-18T03:59:50;17.88;;;7.38;;
46745;SDS011;32493;50.514;9.678;2022-12-18T04:02:14;25.20;;;8.32;;
46745;SDS011;32493;50.514;9.678;2022-12-18T04:04:21;20.80;;;7.70;;
46745;SDS011;32493;50.514;9.678;2022-12-18T04:08:35;18.77;;;6.47;;
46745;SDS011;32493;50.514;9.678;2022-12-18T04:10:44;18.27;;;7.50;;
46745;SDS011;32493;50.514;9.678;2022-12-18T04:12:49;16.92;;;6.85;;
46745;SDS011;32493;50.514;9.678;2022-12-18T04:14:57;21.48;;;7.70;;
46745;SDS011;32493;50.514;9.678;2022-12-18T04:17:03;20.75;;;7.40;;
46745;SDS011;32493;50.514;9.678;2022-12-18T04:19:08;15.07;;;6.35;;
46745;SDS011;32493;50.514;9.678;2022-12-18T04:21:16;18.50;;;7.40;;
46745;SDS011;32493;50.514;9.678;2022-12-18T04:23:23;19.42;;;7.78;;
46745;SDS011;32493;50.514;9.678;2022-12-18T04:25:31;17.95;;;7.10;;
46745;SDS011;32493;50.514;9.678;2022-12-18T04:27:41;17.90;;;7.63;;
46745;SDS011;32493;50.514;9.678;2022-12-18T04:29:48;22.10;;;7.23;;
46745;SDS011;32493;50.514;9.678;2022-12-18T04:31:55;18.75;;;6.82;;
46745;SDS011;32493;50.514;9.678;2022-12-18T04:34:03;19.55;;;7.07;;
46745;SDS011;32493;50.514;9.678;2022-12-18T04:36:14;18.95;;;7.57;;
46745;SDS011;32493;50.514;9.678;2022-12-18T04:38:21;18.85;;;7.50;;
46745;SDS011;32493;50.514;9.678;2022-12-18T04:40:35;24.65;;;8.50;;
46745;SDS011;32493;50.514;9.678;2022-12-18T04:42:49;19.17;;;7.80;;
46745;SDS011;32493;50.514;9.678;2022-12-18T04:44:54;23.42;;;8.27;;
46745;SDS011;32493;50.514;9.678;2022-12-18T04:47:02;20.20;;;8.30;;
46745;SDS011;32493;50.514;9.678;2022-12-18T04:49:09;21.75;;;8.98;;
46745;SDS011;32493;50.514;9.678;2022-12-18T04:51:14;24.52;;;8.50;;
46745;SDS011;32493;50.514;9.678;2022-12-18T04:53:27;23.00;;;8.50;;
46745;SDS011;32493;50.514;9.678;2022-12-18T04:55:33;25.40;;;10.65;;
46745;SDS011;32493;50.514;9.678;2022-12-18T04:57:38;27.30;;;9.80;;
46745;SDS011;32493;50.514;9.678;2022-12-18T04:59:43;25.23;;;9.52;;
46745;SDS011;32493;50.514;9.678;2022-12-18T05:01:48;25.88;;;9.25;;
46745;SDS011;32493;50.514;9.678;2022-12-18T05:03:56;20.67;;;8.70;;
46745;SDS011;32493;50.514;9.678;2022-12-18T05:08:08;20.70;;;8.45;;
46745;SDS011;32493;50.514;9.678;2022-12-18T05:10:13;22.42;;;9.10;;
46745;SDS011;32493;50.514;9.678;2022-12-18T05:12:19;26.02;;;9.27;;
46745;SDS011;32493;50.514;9.678;2022-12-18T05:14:28;27.27;;;9.55;;
46745;SDS011;32493;50.514;9.678;2022-12-18T05:16:33;24.23;;;9.60;;
46745;SDS011;32493;50.514;9.678;2022-12-18T05:18:39;21.63;;;8.93;;
46745;SDS011;32493;50.514;9.678;2022-12-18T05:20:47;28.55;;;10.85;;
46745;SDS011;32493;50.514;9.678;2022-12-18T05:22:54;22.20;;;9.00;;
46745;SDS011;32493;50.514;9.678;2022-12-18T05:25:00;19.77;;;7.78;;
46745;SDS011;32493;50.514;9.678;2022-12-18T05:27:06;20.27;;;7.55;;
46745;SDS011;32493;50.514;9.678;2022-12-18T05:29:11;23.35;;;8.20;;
46745;SDS011;32493;50.514;9.678;2022-12-18T05:31:16;22.52;;;8.40;;
46745;SDS011;32493;50.514;9.678;2022-12-18T05:33:21;22.15;;;8.60;;
46745;SDS011;32493;50.514;9.678;2022-12-18T05:35:28;17.02;;;7.20;;
46745;SDS011;32493;50.514;9.678;2022-12-18T05:37:36;18.50;;;7.57;;
46745;SDS011;32493;50.514;9.678;2022-12-18T05:39:43;21.15;;;8.07;;
46745;SDS011;32493;50.514;9.678;2022-12-18T05:41:48;19.42;;;5.78;;
46745;SDS011;32493;50.514;9.678;2022-12-18T05:43:53;16.23;;;6.07;;
46745;SDS011;32493;50.514;9.678;2022-12-18T05:46:02;17.73;;;6.60;;
46745;SDS011;32493;50.514;9.678;2022-12-18T05:48:09;18.35;;;7.28;;
46745;SDS011;32493;50.514;9.678;2022-12-18T05:50:15;23.13;;;7.88;;
46745;SDS011;32493;50.514;9.678;2022-12-18T05:52:21;15.43;;;6.50;;
46745;SDS011;32493;50.514;9.678;2022-12-18T05:54:29;18.25;;;6.70;;
46745;SDS011;32493;50.514;9.678;2022-12-18T05:56:34;18.17;;;6.88;;
46745;SDS011;32493;50.514;9.678;2022-12-18T05:58:46;20.38;;;7.60;;
46745;SDS011;32493;50.514;9.678;2022-12-18T06:00:51;24.50;;;8.18;;
46745;SDS011;32493;50.514;9.678;2022-12-18T06:02:56;25.20;;;8.82;;
46745;SDS011;32493;50.514;9.678;2022-12-18T06:05:02;20.52;;;8.50;;
46745;SDS011;32493;50.514;9.678;2022-12-18T06:07:09;20.05;;;8.52;;
46745;SDS011;32493;50.514;9.678;2022-12-18T06:09:15;21.65;;;7.95;;
46745;SDS011;32493;50.514;9.678;2022-12-18T06:11:23;23.00;;;9.00;;
46745;SDS011;32493;50.514;9.678;2022-12-18T06:13:30;23.10;;;8.95;;
46745;SDS011;32493;50.514;9.678;2022-12-18T06:15:35;22.65;;;8.88;;
46745;SDS011;32493;50.514;9.678;2022-12-18T06:17:41;22.48;;;9.02;;
46745;SDS011;32493;50.514;9.678;2022-12-18T06:19:46;25.08;;;9.63;;
46745;SDS011;32493;50.514;9.678;2022-12-18T06:21:52;21.17;;;8.80;;
46745;SDS011;32493;50.514;9.678;2022-12-18T06:23:59;18.52;;;8.18;;
46745;SDS011;32493;50.514;9.678;2022-12-18T06:26:06;23.75;;;8.65;;
46745;SDS011;32493;50.514;9.678;2022-12-18T06:28:16;21.17;;;8.65;;
46745;SDS011;32493;50.514;9.678;2022-12-18T06:30:21;21.15;;;8.45;;
46745;SDS011;32493;50.514;9.678;2022-12-18T06:32:26;15.88;;;5.45;;
46745;SDS011;32493;50.514;9.678;2022-12-18T06:34:31;15.20;;;6.00;;
46745;SDS011;32493;50.514;9.678;2022-12-18T06:36:36;15.18;;;5.60;;
46745;SDS011;32493;50.514;9.678;2022-12-18T06:38:43;16.95;;;5.13;;
46745;SDS011;32493;50.514;9.678;2022-12-18T06:40:48;21.55;;;6.55;;
46745;SDS011;32493;50.514;9.678;2022-12-18T06:42:53;19.02;;;7.20;;
46745;SDS011;32493;50.514;9.678;2022-12-18T06:45:02;22.95;;;7.25;;
46745;SDS011;32493;50.514;9.678;2022-12-18T06:47:07;14.95;;;6.50;;
46745;SDS011;32493;50.514;9.678;2022-12-18T06:49:13;21.23;;;8.90;;
46745;SDS011;32493;50.514;9.678;2022-12-18T06:51:19;24.52;;;7.40;;
46745;SDS011;32493;50.514;9.678;2022-12-18T06:53:25;17.13;;;7.63;;
46745;SDS011;32493;50.514;9.678;2022-12-18T06:55:31;24.45;;;7.20;;
46745;SDS011;32493;50.514;9.678;2022-12-18T06:57:36;19.77;;;7.90;;
46745;SDS011;32493;50.514;9.678;2022-12-18T06:59:42;17.40;;;7.90;;
46745;SDS011;32493;50.514;9.678;2022-12-18T07:01:49;18.67;;;7.47;;
46745;SDS011;32493;50.514;9.678;2022-12-18T07:03:56;22.35;;;8.52;;
46745;SDS011;32493;50.514;9.678;2022-12-18T07:06:02;21.17;;;8.27;;
46745;SDS011;32493;50.514;9.678;2022-12-18T07:08:08;19.83;;;7.78;;
46745;SDS011;32493;50.514;9.678;2022-12-18T07:10:13;19.77;;;7.97;;
46745;SDS011;32493;50.514;9.678;2022-12-18T07:12:18;25.00;;;7.93;;
46745;SDS011;32493;50.514;9.678;2022-12-18T07:14:23;24.88;;;9.20;;
46745;SDS011;32493;50.514;9.678;2022-12-18T07:16:28;26.27;;;8.25;;
46745;SDS011;32493;50.514;9.678;2022-12-18T07:18:36;20.90;;;8.52;;
46745;SDS011;32493;50.514;9.678;2022-12-18T07:20:41;22.48;;;8.57;;
46745;SDS011;32493;50.514;9.678;2022-12-18T07:22:48;22.52;;;8.18;;
46745;SDS011;32493;50.514;9.678;2022-12-18T07:24:56;20.92;;;8.20;;
46745;SDS011;32493;50.514;9.678;2022-12-18T07:27:01;20.33;;;8.48;;
46745;SDS011;32493;50.514;9.678;2022-12-18T07:29:08;22.10;;;8.13;;
46745;SDS011;32493;50.514;9.678;2022-12-18T07:31:15;21.17;;;8.80;;
46745;SDS011;32493;50.514;9.678;2022-12-18T07:33:23;17.83;;;8.32;;
46745;SDS011;32493;50.514;9.678;2022-12-18T07:35:32;22.75;;;9.30;;
46745;SDS011;32493;50.514;9.678;2022-12-18T07:39:43;29.75;;;9.68;;
46745;SDS011;32493;50.514;9.678;2022-12-18T07:41:50;43.85;;;13.23;;
46745;SDS011;32493;50.514;9.678;2022-12-18T07:44:09;42.78;;;15.55;;
46745;SDS011;32493;50.514;9.678;2022-12-18T07:46:14;43.83;;;15.38;;
46745;SDS011;32493;50.514;9.678;2022-12-18T07:48:20;49.25;;;16.67;;
46745;SDS011;32493;50.514;9.678;2022-12-18T07:50:26;55.45;;;17.38;;
46745;SDS011;32493;50.514;9.678;2022-12-18T07:52:33;30.70;;;12.30;;
46745;SDS011;32493;50.514;9.678;2022-12-18T07:56:43;31.30;;;12.35;;
46745;SDS011;32493;50.514;9.678;2022-12-18T07:58:49;39.38;;;13.80;;
46745;SDS011;32493;50.514;9.678;2022-12-18T08:01:01;47.28;;;18.92;;
46745;SDS011;32493;50.514;9.678;2022-12-18T08:03:08;49.20;;;17.50;;
46745;SDS011;32493;50.514;9.678;2022-12-18T08:05:13;40.45;;;17.05;;
46745;SDS011;32493;50.514;9.678;2022-12-18T08:07:18;37.03;;;14.85;;
46745;SDS011;32493;50.514;9.678;2022-12-18T08:09:26;35.15;;;13.73;;
46745;SDS011;32493;50.514;9.678;2022-12-18T08:11:32;30.42;;;12.25;;
46745;SDS011;32493;50.514;9.678;2022-12-18T08:13:37;28.02;;;12.13;;
46745;SDS011;32493;50.514;9.678;2022-12-18T08:15:42;26.83;;;11.85;;
46745;SDS011;32493;50.514;9.678;2022-12-18T08:17:47;31.48;;;11.85;;
46745;SDS011;32493;50.514;9.678;2022-12-18T08:19:52;28.45;;;12.65;;
46745;SDS011;32493;50.514;9.678;2022-12-18T08:21:58;30.63;;;12.93;;
46745;SDS011;32493;50.514;9.678;2022-12-18T08:24:03;31.45;;;12.95;;
46745;SDS011;32493;50.514;9.678;2022-12-18T08:26:12;27.15;;;12.60;;
46745;SDS011;32493;50.514;9.678;2022-12-18T08:28:19;31.83;;;13.93;;
46745;SDS011;32493;50.514;9.678;2022-12-18T08:30:24;26.63;;;12.10;;
46745;SDS011;32493;50.514;9.678;2022-12-18T08:32:29;28.00;;;12.02;;
46745;SDS011;32493;50.514;9.678;2022-12-18T08:34:35;35.67;;;14.55;;
46745;SDS011;32493;50.514;9.678;2022-12-18T08:36:40;36.72;;;15.85;;
46745;SDS011;32493;50.514;9.678;2022-12-18T08:38:46;39.42;;;15.45;;
46745;SDS011;32493;50.514;9.678;2022-12-18T08:40:54;35.22;;;14.98;;
46745;SDS011;32493;50.514;9.678;2022-12-18T08:43:06;38.72;;;15.02;;
46745;SDS011;32493;50.514;9.678;2022-12-18T08:45:26;40.08;;;15.23;;
46745;SDS011;32493;50.514;9.678;2022-12-18T08:47:31;38.28;;;15.07;;
46745;SDS011;32493;50.514;9.678;2022-12-18T08:49:36;32.08;;;13.73;;
46745;SDS011;32493;50.514;9.678;2022-12-18T08:51:42;39.75;;;14.52;;
46745;SDS011;32493;50.514;9.678;2022-12-18T08:53:47;41.55;;;15.48;;
46745;SDS011;32493;50.514;9.678;2022-12-18T08:55:52;46.78;;;15.27;;
46745;SDS011;32493;50.514;9.678;2022-12-18T08:57:57;40.28;;;15.93;;
46745;SDS011;32493;50.514;9.678;2022-12-18T09:00:06;41.13;;;16.23;;
46745;SDS011;32493;50.514;9.678;2022-12-18T09:02:16;42.30;;;15.45;;
46745;SDS011;32493;50.514;9.678;2022-12-18T09:04:21;42.33;;;16.02;;
46745;SDS011;32493;50.514;9.678;2022-12-18T09:06:26;38.97;;;15.23;;
46745;SDS011;32493;50.514;9.678;2022-12-18T09:08:31;38.67;;;15.45;;
46745;SDS011;32493;50.514;9.678;2022-12-18T09:10:40;37.80;;;14.55;;
46745;SDS011;32493;50.514;9.678;2022-12-18T09:12:46;34.13;;;14.55;;
46745;SDS011;32493;50.514;9.678;2022-12-18T09:14:51;35.58;;;14.23;;
46745;SDS011;32493;50.514;9.678;2022-12-18T09:17:00;31.67;;;11.27;;
46745;SDS011;32493;50.514;9.678;2022-12-18T09:19:05;37.55;;;15.48;;
46745;SDS011;32493;50.514;9.678;2022-12-18T09:21:12;51.30;;;19.02;;
46745;SDS011;32493;50.514;9.678;2022-12-18T09:23:19;48.80;;;18.52;;
46745;SDS011;32493;50.514;9.678;2022-12-18T09:25:24;50.75;;;18.63;;
46745;SDS011;32493;50.514;9.678;2022-12-18T09:27:33;39.72;;;15.55;;
46745;SDS011;32493;50.514;9.678;2022-12-18T09:29:38;56.15;;;18.55;;
46745;SDS011;32493;50.514;9.678;2022-12-18T09:31:43;45.25;;;19.00;;
46745;SDS011;32493;50.514;9.678;2022-12-18T09:33:52;49.67;;;18.30;;
46745;SDS011;32493;50.514;9.678;2022-12-18T09:36:00;43.38;;;16.83;;
46745;SDS011;32493;50.514;9.678;2022-12-18T09:38:08;46.13;;;19.35;;
46745;SDS011;32493;50.514;9.678;2022-12-18T09:40:19;46.22;;;17.48;;
46745;SDS011;32493;50.514;9.678;2022-12-18T09:42:28;44.83;;;17.65;;
46745;SDS011;32493;50.514;9.678;2022-12-18T09:44:34;36.65;;;16.15;;
46745;SDS011;32493;50.514;9.678;2022-12-18T09:46:47;44.83;;;17.30;;
46745;SDS011;32493;50.514;9.678;2022-12-18T09:49:07;46.58;;;17.27;;
46745;SDS011;32493;50.514;9.678;2022-12-18T09:51:20;40.33;;;19.67;;
46745;SDS011;32493;50.514;9.678;2022-12-18T09:53:34;42.03;;;17.20;;
46745;SDS011;32493;50.514;9.678;2022-12-18T09:55:43;41.50;;;18.70;;
46745;SDS011;32493;50.514;9.678;2022-12-18T09:57:51;48.15;;;19.33;;
46745;SDS011;32493;50.514;9.678;2022-12-18T10:00:15;47.65;;;19.88;;
46745;SDS011;32493;50.514;9.678;2022-12-18T10:02:24;49.47;;;20.10;;
46745;SDS011;32493;50.514;9.678;2022-12-18T10:04:36;50.35;;;19.70;;
46745;SDS011;32493;50.514;9.678;2022-12-18T10:06:43;86.43;;;30.35;;
46745;SDS011;32493;50.514;9.678;2022-12-18T10:08:58;88.72;;;30.17;;
46745;SDS011;32493;50.514;9.678;2022-12-18T10:11:21;66.93;;;26.80;;
46745;SDS011;32493;50.514;9.678;2022-12-18T10:13:42;60.17;;;23.65;;
46745;SDS011;32493;50.514;9.678;2022-12-18T10:15:55;80.43;;;27.20;;
46745;SDS011;32493;50.514;9.678;2022-12-18T10:18:17;50.88;;;19.92;;
46745;SDS011;32493;50.514;9.678;2022-12-18T10:20:38;46.00;;;18.77;;
46745;SDS011;32493;50.514;9.678;2022-12-18T10:22:50;45.25;;;18.23;;
46745;SDS011;32493;50.514;9.678;2022-12-18T10:25:05;44.22;;;18.05;;
46745;SDS011;32493;50.514;9.678;2022-12-18T10:27:23;43.95;;;18.48;;
46745;SDS011;32493;50.514;9.678;2022-12-18T10:29:31;48.40;;;19.30;;
46745;SDS011;32493;50.514;9.678;2022-12-18T10:31:36;52.25;;;21.13;;
46745;SDS011;32493;50.514;9.678;2022-12-18T10:33:41;43.80;;;18.42;;
46745;SDS011;32493;50.514;9.678;2022-12-18T10:35:51;46.88;;;20.17;;
46745;SDS011;32493;50.514;9.678;2022-12-18T10:38:00;39.60;;;18.30;;
46745;SDS011;32493;50.514;9.678;2022-12-18T10:40:12;41.03;;;18.90;;
46745;SDS011;32493;50.514;9.678;2022-12-18T10:42:23;42.78;;;18.80;;
46745;SDS011;32493;50.514;9.678;2022-12-18T10:44:28;44.47;;;17.95;;
46745;SDS011;32493;50.514;9.678;2022-12-18T10:46:33;44.53;;;19.27;;
46745;SDS011;32493;50.514;9.678;2022-12-18T10:48:46;44.22;;;18.73;;
46745;SDS011;32493;50.514;9.678;2022-12-18T10:51:02;52.33;;;20.05;;
46745;SDS011;32493;50.514;9.678;2022-12-18T10:53:15;43.28;;;18.90;;
46745;SDS011;32493;50.514;9.678;2022-12-18T10:55:27;42.28;;;18.65;;
46745;SDS011;32493;50.514;9.678;2022-12-18T10:57:37;45.80;;;18.83;;
46745;SDS011;32493;50.514;9.678;2022-12-18T10:59:51;48.60;;;19.20;;
46745;SDS011;32493;50.514;9.678;2022-12-18T11:01:58;43.85;;;17.90;;
46745;SDS011;32493;50.514;9.678;2022-12-18T11:04:07;43.67;;;18.42;;
46745;SDS011;32493;50.514;9.678;2022-12-18T11:06:16;45.38;;;19.13;;
46745;SDS011;32493;50.514;9.678;2022-12-18T11:08:26;47.53;;;18.67;;
46745;SDS011;32493;50.514;9.678;2022-12-18T11:10:32;46.75;;;19.23;;
46745;SDS011;32493;50.514;9.678;2022-12-18T11:12:42;43.78;;;19.50;;
46745;SDS011;32493;50.514;9.678;2022-12-18T11:14:47;43.53;;;17.67;;
46745;SDS011;32493;50.514;9.678;2022-12-18T11:19:27;38.63;;;16.88;;
46745;SDS011;32493;50.514;9.678;2022-12-18T11:21:41;40.08;;;18.63;;
46745;SDS011;32493;50.514;9.678;2022-12-18T11:23:48;42.42;;;18.77;;
46745;SDS011;32493;50.514;9.678;2022-12-18T11:25:57;44.90;;;19.00;;
46745;SDS011;32493;50.514;9.678;2022-12-18T11:28:05;42.70;;;17.70;;
46745;SDS011;32493;50.514;9.678;2022-12-18T11:30:35;46.28;;;18.90;;
46745;SDS011;32493;50.514;9.678;2022-12-18T11:32:41;42.92;;;18.98;;
46745;SDS011;32493;50.514;9.678;2022-12-18T11:34:50;40.83;;;18.38;;
46745;SDS011;32493;50.514;9.678;2022-12-18T11:37:04;48.63;;;19.17;;
46745;SDS011;32493;50.514;9.678;2022-12-18T11:39:11;42.25;;;18.80;;
46745;SDS011;32493;50.514;9.678;2022-12-18T11:41:24;43.17;;;19.17;;
46745;SDS011;32493;50.514;9.678;2022-12-18T11:43:48;48.92;;;20.52;;
46745;SDS011;32493;50.514;9.678;2022-12-18T11:46:00;46.00;;;21.60;;
46745;SDS011;32493;50.514;9.678;2022-12-18T11:48:21;44.33;;;19.25;;
46745;SDS011;32493;50.514;9.678;2022-12-18T11:50:32;42.53;;;19.00;;
46745;SDS011;32493;50.514;9.678;2022-12-18T11:52:53;39.33;;;18.33;;
46745;SDS011;32493;50.514;9.678;2022-12-18T11:55:10;49.60;;;19.88;;
46745;SDS011;32493;50.514;9.678;2022-12-18T11:57:20;45.90;;;20.60;;
46745;SDS011;32493;50.514;9.678;2022-12-18T11:59:40;44.13;;;21.05;;
46745;SDS011;32493;50.514;9.678;2022-12-18T12:01:54;43.35;;;19.30;;
46745;SDS011;32493;50.514;9.678;2022-12-18T12:04:15;48.80;;;20.33;;
46745;SDS011;32493;50.514;9.678;2022-12-18T12:06:45;45.15;;;20.08;;
46745;SDS011;32493;50.514;9.678;2022-12-18T12:09:07;51.83;;;20.58;;
46745;SDS011;32493;50.514;9.678;2022-12-18T12:11:26;43.25;;;19.40;;
46745;SDS011;32493;50.514;9.678;2022-12-18T12:13:43;43.05;;;20.35;;
46745;SDS011;32493;50.514;9.678;2022-12-18T12:16:11;46.95;;;21.58;;
46745;SDS011;32493;50.514;9.678;2022-12-18T12:18:24;49.15;;;21.55;;
46745;SDS011;32493;50.514;9.678;2022-12-18T12:20:44;57.92;;;24.65;;
46745;SDS011;32493;50.514;9.678;2022-12-18T12:22:58;47.75;;;22.05;;
46745;SDS011;32493;50.514;9.678;2022-12-18T12:25:25;44.80;;;20.02;;
46745;SDS011;32493;50.514;9.678;2022-12-18T12:27:40;50.47;;;22.08;;
46745;SDS011;32493;50.514;9.678;2022-12-18T12:29:58;47.85;;;21.42;;
46745;SDS011;32493;50.514;9.678;2022-12-18T12:32:13;49.33;;;22.88;;
46745;SDS011;32493;50.514;9.678;2022-12-18T12:34:32;44.72;;;20.65;;
46745;SDS011;32493;50.514;9.678;2022-12-18T12:36:52;44.47;;;21.83;;
46745;SDS011;32493;50.514;9.678;2022-12-18T12:39:18;51.67;;;20.85;;
46745;SDS011;32493;50.514;9.678;2022-12-18T12:41:33;47.97;;;21.40;;
46745;SDS011;32493;50.514;9.678;2022-12-18T12:43:52;45.58;;;21.98;;
46745;SDS011;32493;50.514;9.678;2022-12-18T12:46:03;54.97;;;24.63;;
46745;SDS011;32493;50.514;9.678;2022-12-18T12:48:14;47.03;;;21.98;;
46745;SDS011;32493;50.514;9.678;2022-12-18T12:50:25;50.92;;;22.63;;
46745;SDS011;32493;50.514;9.678;2022-12-18T12:52:32;46.28;;;21.75;;
46745;SDS011;32493;50.514;9.678;2022-12-18T12:54:43;45.15;;;23.00;;
46745;SDS011;32493;50.514;9.678;2022-12-18T12:56:54;47.50;;;22.93;;
46745;SDS011;32493;50.514;9.678;2022-12-18T12:59:05;42.72;;;20.65;;